createdAt,value
2018-08-28T00:04:53.811Z,95432.6
2018-08-28T00:09:49.999Z,95429.2
2018-08-28T00:14:47.736Z,95436.9
2018-08-28T00:19:44.473Z,95603.4
2018-08-28T00:24:44.681Z,95444.7
2018-08-28T00:29:42.335Z,95578.8
2018-08-28T00:34:41.994Z,95574.4
2018-08-28T00:39:39.197Z,95437.1
2018-08-28T00:44:36.950Z,95541.4
2018-08-28T00:49:36.461Z,95431.5
2018-08-28T00:54:38.002Z,95552.2
2018-08-28T00:59:36.451Z,95550.2
2018-08-28T01:04:35.619Z,95433.5
2018-08-28T01:09:36.931Z,95444.8
2018-08-28T01:14:33.981Z,95448.5
2018-08-28T01:19:31.914Z,95445.5
2018-08-28T01:24:28.519Z,95452.3
2018-08-28T01:29:26.351Z,95584.2
2018-08-28T01:34:23.683Z,95441.3
2018-08-28T01:39:20.979Z,95446
2018-08-28T01:44:18.495Z,95585.7
2018-08-28T01:49:15.595Z,95580.5
2018-08-28T01:54:12.921Z,95444.4
2018-08-28T01:59:10.054Z,95439
2018-08-28T02:04:06.868Z,95443.6
2018-08-28T02:09:03.482Z,95440
2018-08-28T02:14:01.786Z,95456.9
2018-08-28T02:18:58.584Z,95447.7
2018-08-28T02:23:55.226Z,95447.9
2018-08-28T02:28:54.281Z,95446.6
2018-08-28T02:33:52.073Z,95433.8
2018-08-28T02:38:50.066Z,95440.6
2018-08-28T02:43:47.401Z,95444.4
2018-08-28T02:48:44.016Z,95435.6
2018-08-28T02:53:44.085Z,95439.8
2018-08-28T02:58:40.189Z,95450.8
2018-08-28T03:03:37.725Z,95458
2018-08-28T03:08:34.221Z,95458.4
2018-08-28T03:13:30.938Z,95477.1
2018-08-28T03:18:27.501Z,95484.5
2018-08-28T03:23:25.062Z,95492.1
2018-08-28T03:28:21.662Z,95491.5
2018-08-28T03:33:19.038Z,95497.6
2018-08-28T03:38:15.822Z,95509.5
2018-08-28T03:43:13.593Z,95697.8
2018-08-28T03:48:10.194Z,95513.8
2018-08-28T03:53:07.053Z,95513.6
2018-08-28T03:58:03.557Z,95477.8
2018-08-28T04:03:01.172Z,95629.6
2018-08-28T04:07:58.202Z,95513.4
2018-08-28T04:12:54.943Z,95517.2
2018-08-28T04:17:52.205Z,95533
2018-08-28T04:22:48.858Z,95538
2018-08-28T04:27:46.400Z,95537.9
2018-08-28T04:32:42.828Z,95459.8
2018-08-28T04:37:39.448Z,95621.5
2018-08-28T04:42:36.354Z,95536.7
2018-08-28T04:47:33.410Z,95533.1
2018-08-28T04:52:30.421Z,95536.1
2018-08-28T04:57:27.353Z,95534.9
2018-08-28T05:02:24.614Z,95527.9
2018-08-28T05:07:22.255Z,95533.9
2018-08-28T05:12:19.057Z,95646.5
2018-08-28T05:17:16.055Z,95690.5
2018-08-28T05:22:12.523Z,95533.4
2018-08-28T05:27:18.669Z,95539.1
2018-08-28T05:32:13.681Z,95537.6
2018-08-28T05:37:10.521Z,95605
2018-08-28T05:42:07.319Z,95627.6
2018-08-28T05:47:04.135Z,95667.3
2018-08-28T05:52:01.311Z,95540.9
2018-08-28T05:56:58.302Z,95649.6
2018-08-28T06:01:55.178Z,95554.7
2018-08-28T06:06:51.994Z,95552.6
2018-08-28T06:11:48.983Z,95554.8
2018-08-28T06:16:46.206Z,95554.2
2018-08-28T06:21:43.952Z,95596.9
2018-08-28T06:26:41.600Z,95566.6
2018-08-28T06:31:38.050Z,95561.5
2018-08-28T06:36:34.788Z,95563
2018-08-28T06:41:31.481Z,95560.8
2018-08-28T06:46:28.368Z,95572.4
2018-08-28T06:51:25.997Z,95581.7
2018-08-28T06:56:23.586Z,95705.5
2018-08-28T07:01:20.117Z,95472.2
2018-08-28T07:06:16.539Z,95481.4
2018-08-28T07:11:14.693Z,95466.5
2018-08-28T07:16:11.710Z,95596.1
2018-08-28T07:21:08.302Z,95481.5
2018-08-28T07:26:05.347Z,95495.2
2018-08-28T07:31:02.202Z,95736.7
2018-08-28T07:35:59.232Z,95749.1
2018-08-28T07:40:56.380Z,95758.3
2018-08-28T07:45:53.368Z,95759.1
2018-08-28T07:50:50.905Z,95627.4
2018-08-28T07:55:48.427Z,95750
2018-08-28T08:00:45.138Z,95754.7
2018-08-28T08:05:42.936Z,95622.2
2018-08-28T08:10:39.373Z,95760.5
2018-08-28T08:15:36.413Z,95777.3
2018-08-28T08:20:33.509Z,95627.4
2018-08-28T08:25:30.451Z,95627.5
2018-08-28T08:30:27.092Z,95556.3
2018-08-28T08:35:24.046Z,95647.3
2018-08-28T08:40:24.956Z,95510.5
2018-08-28T08:45:20.821Z,95515.1
2018-08-28T08:50:17.517Z,95501.4
2018-08-28T08:55:14.297Z,95503.9
2018-08-28T09:00:11.144Z,95622
2018-08-28T09:05:07.839Z,95509.5
2018-08-28T09:10:04.566Z,95505.6
2018-08-28T09:15:01.476Z,95503.5
2018-08-28T09:19:58.063Z,95500
2018-08-28T09:24:55.833Z,95499.1
2018-08-28T09:29:52.593Z,95504.2
2018-08-28T09:34:49.436Z,95620.4
2018-08-28T09:39:46.310Z,95509.9
2018-08-28T09:44:43.314Z,95495.4
2018-08-28T09:49:40.386Z,95505.8
2018-08-28T09:54:37.471Z,95511.7
2018-08-28T09:59:35.187Z,95607.1
2018-08-28T10:04:31.881Z,95609.6
2018-08-28T10:09:28.735Z,95603.7
2018-08-28T10:14:26.363Z,95609.9
2018-08-28T10:19:24.352Z,95600.1
2018-08-28T10:24:21.053Z,95600.6
2018-08-28T10:29:17.820Z,95559.5
2018-08-28T10:34:14.311Z,95592.8
2018-08-28T10:39:11.141Z,95594.2
2018-08-28T10:44:08.096Z,95584.1
2018-08-28T10:49:05.161Z,95578.8
2018-08-28T10:54:01.911Z,95571
2018-08-28T10:58:58.970Z,95567.7
2018-08-28T11:03:56.058Z,95563.2
2018-08-28T11:08:53.064Z,95553.1
2018-08-28T11:13:50.160Z,95557.7
2018-08-28T11:18:46.696Z,95542.7
2018-08-28T11:23:43.368Z,95538.9
2018-08-28T11:28:40.886Z,95535
2018-08-28T11:33:37.876Z,95527
2018-08-28T11:38:35.246Z,95519.2
2018-08-28T11:43:31.962Z,95517.3
2018-08-28T11:48:28.796Z,95517.1
2018-08-28T11:53:25.771Z,95508.4
2018-08-28T11:58:24.711Z,95450.9
2018-08-28T12:03:21.453Z,95528.3
2018-08-28T12:08:18.385Z,95481.8
2018-08-28T12:13:16.252Z,95477.1
2018-08-28T12:18:13.034Z,95477.7
2018-08-28T12:23:13.467Z,95476.6
2018-08-28T12:28:09.673Z,95474.8
2018-08-28T12:33:06.753Z,95475.5
2018-08-28T12:38:03.650Z,95474.3
2018-08-28T12:43:00.539Z,95471.3
2018-08-28T12:48:04.861Z,95472.3
2018-08-28T12:53:00.010Z,95480.7
2018-08-28T12:57:57.167Z,95477.9
2018-08-28T13:02:54.130Z,95471
2018-08-28T13:07:51.169Z,95469.5
2018-08-28T13:12:48.148Z,95383.8
2018-08-28T13:17:45.093Z,95477.7
2018-08-28T19:20:54.667Z,95701.1
2018-08-28T19:25:51.350Z,95698.6
2018-08-28T19:30:48.334Z,95698.1
2018-08-28T19:35:45.178Z,95704.4
2018-08-28T19:40:42.098Z,95706.8
2018-08-28T19:45:38.641Z,95707.2
2018-08-28T19:50:35.520Z,95706.2
2018-08-28T19:55:32.427Z,95703.7
2018-08-28T20:00:29.956Z,95703.3
2018-08-28T20:05:27.059Z,95700
2018-08-28T20:10:24.073Z,95702.5
2018-08-28T20:15:20.766Z,95705.7
2018-08-28T20:20:17.731Z,95708.2
2018-08-28T20:25:21.099Z,95703.9
2018-08-28T20:30:17.493Z,95601.3
2018-08-28T20:35:13.873Z,95603.6
2018-08-28T20:40:10.544Z,95712.3
2018-08-28T20:45:07.268Z,95570.5
2018-08-28T20:50:05.355Z,95605.2
2018-08-28T20:55:02.074Z,95610
2018-08-28T20:59:59.239Z,95598.5
2018-08-28T21:04:56.068Z,95606.2
2018-08-28T21:09:53.250Z,95718
2018-08-28T21:14:49.944Z,95602.5
2018-08-28T21:19:46.509Z,95597
2018-08-28T21:24:43.836Z,95714.5
2018-08-28T21:29:40.891Z,95715.6
2018-08-28T21:34:38.124Z,95722.5
2018-08-28T21:39:34.769Z,95596.8
2018-08-28T21:44:31.832Z,95712.1
2018-08-28T21:49:28.778Z,95608.3
2018-08-28T21:54:25.827Z,95602.8
2018-08-28T21:59:22.963Z,95598.3
2018-08-28T22:04:20.616Z,95701.8
2018-08-28T22:09:17.300Z,95588.5
2018-08-28T22:14:13.884Z,95600.6
2018-08-28T22:19:11.021Z,95709
2018-08-28T22:24:08.078Z,95590.1
2018-08-28T22:29:04.887Z,95600.2
2018-08-28T22:34:01.344Z,95700.9
2018-08-28T22:38:58.049Z,95703
2018-08-28T22:43:54.415Z,95589.5
2018-08-28T22:48:51.539Z,95695.1
2018-08-28T22:53:48.555Z,95585.7
2018-08-28T22:58:45.661Z,95597.4
2018-08-28T23:03:42.842Z,95578
2018-08-28T23:08:39.786Z,95545
2018-08-28T23:13:36.195Z,95574.6
2018-08-28T23:18:32.996Z,95574.2
2018-08-28T23:23:30.619Z,95685.3
2018-08-28T23:28:27.271Z,95681.8
2018-08-28T23:33:24.179Z,95581.5
2018-08-28T23:38:20.884Z,95652.5
2018-08-28T23:43:17.821Z,95687.3
2018-08-28T23:48:14.520Z,95584.1
2018-08-28T23:53:11.461Z,95581.5
2018-08-28T23:58:08.153Z,95787.5
